Time;durP1;ratioP1;P1;durP2;ratioP2;P2;SDS_P1;SDS_P2;PMS_P1;PMS_P2;Temp;Humidity;BMP_temperature;BMP_pressure;BME280_temperature;BME280_humidity;BME280_pressure;Samples;Min_cycle;Max_cycle;Signal;HPM_P1;HPM_P2
2023/05/11 00:01:04;;;;;;;;;;;;;;;17.34;43.00;99967.31;4432458;32;34826;-77
2023/05/11 00:03:33;;;;;;;;;;;;;;;17.37;42.26;99964.41;4436311;32;33504;-77
2023/05/11 00:06:01;;;;;;;;;;;;;;;17.26;42.54;99969.66;4447614;32;33162;-77
2023/05/11 00:08:30;;;;;;;;;;;;;;;17.22;43.15;99968.16;4434020;32;33900;-77
2023/05/11 00:10:59;;;;;;;;;;;;;;;17.30;42.77;99961.34;4434137;32;33758;-77
2023/05/11 00:13:31;;;;;;;;;;;;;;;17.20;43.15;99957.59;4446954;32;33544;-77
2023/05/11 00:15:59;;;;;;;;;;;;;;;17.24;42.97;99955.56;4446513;32;34180;-77
2023/05/11 00:18:26;;;;;;;;;;;;;;;17.17;43.30;99962.28;4434231;32;33316;-77
2023/05/11 00:20:54;;;;;;;;;;;;;;;17.10;43.81;99965.38;4460173;32;34004;-77
2023/05/11 00:23:30;;;;;;;;;;;;;;;17.12;43.84;99958.09;4446615;32;33281;-77
2023/05/11 00:25:58;;;;;;;;;;;;;;;16.96;44.29;99961.94;4460886;32;34771;-77
2023/05/11 00:28:25;;;;;;;;;;;;;;;16.89;44.07;99962.31;4435427;32;34962;-78
2023/05/11 00:30:56;;;;;;;;;;;;;;;16.90;43.91;99963.19;4433665;32;32774;-78
2023/05/11 00:33:31;;;;;;;;;;;;;;;17.03;43.57;99958.72;4435762;32;33516;-78
2023/05/11 00:36:00;;;;;;;;;;;;;;;17.04;43.59;99964.91;4458453;32;33754;-78
2023/05/11 00:38:35;;;;;;;;;;;;;;;16.95;44.06;99954.87;4444243;32;34403;-78
2023/05/11 00:41:03;;;;;;;;;;;;;;;16.95;43.93;99961.09;4433608;32;33537;-78
2023/05/11 00:43:31;;;;;;;;;;;;;;;16.79;43.46;99947.06;4461761;32;33407;-78
2023/05/11 00:45:59;;;;;;;;;;;;;;;16.84;43.44;99948.44;4446362;32;33825;-78
2023/05/11 00:48:31;;;;;;;;;;;;;;;16.92;43.00;99952.44;4447502;32;33955;-78
2023/05/11 00:51:00;;;;;;;;;;;;;;;16.84;43.84;99952.94;4422168;32;33013;-78
2023/05/11 00:53:28;;;;;;;;;;;;;;;16.68;43.77;99952.22;4433845;32;33396;-78
2023/05/11 00:55:55;;;;;;;;;;;;;;;16.67;43.96;99958.53;4448166;32;33643;-77
2023/05/11 00:58:30;;;;;;;;;;;;;;;16.85;43.02;99949.31;4437268;32;33867;-77
2023/05/11 01:00:57;;;;;;;;;;;;;;;16.77;43.19;99952.50;4459921;32;34247;-78
2023/05/11 01:03:32;;;;;;;;;;;;;;;16.91;43.18;99945.38;4446110;32;34528;-78
2023/05/11 01:06:05;;;;;;;;;;;;;;;16.89;43.71;99946.31;4463384;32;34860;-77
2023/05/11 01:08:47;;;;;;;;;;;;;;;16.95;43.25;99946.88;4447681;32;34669;-77
2023/05/11 01:11:15;;;;;;;;;;;;;;;16.72;44.28;99945.78;4434053;32;32890;-77
2023/05/11 01:13:45;;;;;;;;;;;;;;;16.68;43.98;99946.91;4446423;32;33385;-78
2023/05/11 01:16:23;;;;;;;;;;;;;;;16.87;43.20;99942.06;4422825;32;33384;-77
2023/05/11 01:18:55;;;;;;;;;;;;;;;16.62;44.81;99951.69;4447338;32;33972;-77
2023/05/11 01:21:24;;;;;;;;;;;;;;;16.64;44.49;99947.09;4420728;32;32764;-77
2023/05/11 01:23:51;;;;;;;;;;;;;;;16.70;43.62;99939.63;4461878;32;33702;-79
2023/05/11 01:26:28;;;;;;;;;;;;;;;16.84;44.50;99937.78;4447383;32;34324;-77
2023/05/11 01:29:02;;;;;;;;;;;;;;;16.60;44.94;99942.91;4459952;32;35014;-77
2023/05/11 01:31:30;;;;;;;;;;;;;;;16.45;45.54;99938.59;4458796;32;34798;-77
2023/05/11 01:34:01;;;;;;;;;;;;;;;16.52;45.36;99939.91;4434529;32;33066;-77
2023/05/11 01:36:31;;;;;;;;;;;;;;;16.55;45.38;99936.19;4443107;32;34050;-77
2023/05/11 01:39:03;;;;;;;;;;;;;;;16.67;45.17;99943.38;4439685;32;33966;-77
2023/05/11 01:41:31;;;;;;;;;;;;;;;16.76;44.31;99944.59;4447708;32;34176;-78
2023/05/11 01:43:59;;;;;;;;;;;;;;;16.78;43.50;99937.34;4435204;32;34733;-77
2023/05/11 01:46:29;;;;;;;;;;;;;;;16.76;44.21;99937.47;4447465;32;34114;-77
2023/05/11 01:48:58;;;;;;;;;;;;;;;16.65;45.03;99940.78;4446624;32;35033;-78
2023/05/11 01:51:37;;;;;;;;;;;;;;;16.54;45.46;99943.31;4435889;32;34484;-79
2023/05/11 01:54:05;;;;;;;;;;;;;;;16.65;45.15;99942.59;4446998;32;32966;-78
2023/05/11 01:56:35;;;;;;;;;;;;;;;16.68;45.24;99936.22;4445269;32;34107;-78
2023/05/11 01:59:02;;;;;;;;;;;;;;;16.70;45.35;99934.31;4449113;32;33873;-78
2023/05/11 02:01:31;;;;;;;;;;;;;;;16.65;44.91;99940.78;4446777;32;33688;-78
2023/05/11 02:03:59;;;;;;;;;;;;;;;16.68;44.66;99930.91;4447812;32;32181;-78
2023/05/11 02:06:26;;;;;;;;;;;;;;;16.78;44.56;99937.34;4444801;32;33901;-78
2023/05/11 02:08:53;;;;;;;;;;;;;;;16.70;45.27;99929.81;4449401;32;34908;-77
2023/05/11 02:11:21;;;;;;;;;;;;;;;16.80;45.21;99930.94;4448380;32;33833;-90
2023/05/11 02:13:49;;;;;;;;;;;;;;;16.77;45.05;99931.16;4441397;32;32109;-90
2023/05/11 02:16:17;;;;;;;;;;;;;;;16.76;45.13;99932.13;4422555;32;33284;-90
2023/05/11 02:18:46;;;;;;;;;;;;;;;16.74;45.05;99925.19;4433168;32;33074;-90
2023/05/11 02:21:15;;;;;;;;;;;;;;;16.58;45.33;99930.66;4424040;32;34010;-90
2023/05/11 02:23:45;;;;;;;;;;;;;;;16.84;44.28;99923.59;4448663;32;33101;-89
2023/05/11 02:26:14;;;;;;;;;;;;;;;16.72;44.97;99916.44;4447679;32;34998;-89
2023/05/11 02:28:42;;;;;;;;;;;;;;;16.70;45.29;99915.63;4434980;32;33939;-89
2023/05/11 02:31:17;;;;;;;;;;;;;;;16.63;45.50;99926.72;4422890;32;33490;-90
2023/05/11 02:33:46;;;;;;;;;;;;;;;16.76;45.36;99923.25;4433823;32;33365;-90
2023/05/11 02:36:16;;;;;;;;;;;;;;;16.83;44.67;99920.06;4447434;32;33536;-90
2023/05/11 02:38:45;;;;;;;;;;;;;;;16.68;45.44;99920.22;4423982;32;33641;-90
2023/05/11 02:41:16;;;;;;;;;;;;;;;16.70;45.29;99912.97;4431858;32;33613;-90
2023/05/11 02:43:46;;;;;;;;;;;;;;;16.76;45.08;99912.59;4423207;32;31790;-90
2023/05/11 02:46:16;;;;;;;;;;;;;;;16.72;44.75;99909.28;4432656;32;34230;-90
2023/05/11 02:48:46;;;;;;;;;;;;;;;16.71;44.92;99907.56;4430918;32;33696;-89
2023/05/11 02:51:16;;;;;;;;;;;;;;;16.53;45.51;99909.63;4435714;32;33081;-90
2023/05/11 02:53:44;;;;;;;;;;;;;;;16.54;45.80;99911.34;4421580;32;32965;-88
2023/05/11 02:56:12;;;;;;;;;;;;;;;16.50;45.92;99907.16;4445854;32;33517;-88
2023/05/11 02:58:40;;;;;;;;;;;;;;;16.39;46.41;99912.38;4438916;32;33222;-88
2023/05/11 03:01:12;;;;;;;;;;;;;;;16.31;46.81;99909.34;4421014;32;33793;-88
2023/05/11 03:03:40;;;;;;;;;;;;;;;16.15;47.11;99912.16;4432870;32;32884;-87
2023/05/11 03:06:09;;;;;;;;;;;;;;;16.04;47.25;99915.50;4436079;32;33282;-89
2023/05/11 03:08:36;;;;;;;;;;;;;;;16.13;46.94;99906.91;4421607;32;33252;-89
2023/05/11 03:11:04;;;;;;;;;;;;;;;16.01;47.28;99921.03;4431510;32;33107;-89
2023/05/11 03:13:32;;;;;;;;;;;;;;;15.95;47.44;99915.22;4417803;32;32516;-88
2023/05/11 03:16:01;;;;;;;;;;;;;;;15.90;47.46;99918.19;4417628;32;34371;-88
2023/05/11 03:18:31;;;;;;;;;;;;;;;15.76;48.10;99920.88;4429903;32;34691;-88
2023/05/11 03:20:59;;;;;;;;;;;;;;;15.62;48.45;99919.94;4432117;32;34400;-88
2023/05/11 03:23:27;;;;;;;;;;;;;;;15.59;48.67;99922.75;4445781;32;33441;-89
2023/05/11 03:25:56;;;;;;;;;;;;;;;15.64;48.60;99925.19;4430131;32;32978;-90
2023/05/11 03:28:24;;;;;;;;;;;;;;;15.42;49.28;99930.94;4418299;32;32991;-89
2023/05/11 03:30:53;;;;;;;;;;;;;;;15.39;48.91;99928.47;4422009;32;33143;-89
2023/05/11 03:33:21;;;;;;;;;;;;;;;15.43;48.69;99924.69;4420030;32;34456;-89
2023/05/11 03:35:49;;;;;;;;;;;;;;;15.35;48.91;99937.59;4435670;32;33071;-90
2023/05/11 03:38:20;;;;;;;;;;;;;;;15.36;48.92;99928.66;4416181;32;33320;-90
2023/05/11 03:40:48;;;;;;;;;;;;;;;15.27;49.39;99929.22;4446407;32;33748;-90
2023/05/11 03:47:23;;;;;;;;;;;;;;;15.26;49.51;99922.19;4452681;32;35208;-89
2023/05/11 03:49:52;;;;;;;;;;;;;;;15.22;49.66;99933.97;4442006;32;34265;-89
2023/05/11 03:52:19;;;;;;;;;;;;;;;15.24;49.90;99937.38;4429844;32;34172;-89
2023/05/11 03:54:47;;;;;;;;;;;;;;;15.31;49.42;99928.09;4432033;32;32861;-90
2023/05/11 03:57:15;;;;;;;;;;;;;;;14.97;50.54;99930.13;4425070;32;32717;-89
2023/05/11 03:59:44;;;;;;;;;;;;;;;14.97;50.27;99930.13;4426794;32;32892;-89
2023/05/11 04:02:14;;;;;;;;;;;;;;;14.93;50.63;99931.25;4422386;32;33201;-89
2023/05/11 04:04:44;;;;;;;;;;;;;;;15.07;50.37;99935.75;4424229;32;32762;-89
2023/05/11 04:07:12;;;;;;;;;;;;;;;15.17;50.34;99934.25;4423670;32;33000;-89
2023/05/11 04:09:40;;;;;;;;;;;;;;;15.14;50.31;99941.53;4438678;32;33305;-88
2023/05/11 04:12:09;;;;;;;;;;;;;;;15.31;49.50;99936.91;4437868;32;33317;-89
2023/05/11 04:14:38;;;;;;;;;;;;;;;15.38;49.33;99932.06;4423158;32;33044;-88
2023/05/11 04:17:06;;;;;;;;;;;;;;;15.31;49.77;99938.72;4420439;32;33208;-88
2023/05/11 04:19:34;;;;;;;;;;;;;;;15.39;48.75;99939.13;4433418;32;32574;-88
2023/05/11 04:22:04;;;;;;;;;;;;;;;15.53;48.09;99941.78;4448672;32;34800;-88
2023/05/11 04:24:33;;;;;;;;;;;;;;;15.66;47.66;99941.03;4422256;32;32869;-87
2023/05/11 04:27:03;;;;;;;;;;;;;;;15.59;47.26;99951.19;4447141;32;33795;-88
2023/05/11 04:29:38;;;;;;;;;;;;;;;15.76;46.95;99948.37;4421550;32;32603;-88
2023/05/11 04:32:07;;;;;;;;;;;;;;;15.77;46.83;99958.06;4433880;32;32928;-89
2023/05/11 04:34:35;;;;;;;;;;;;;;;15.94;46.71;99951.66;4418845;32;32415;-89
2023/05/11 04:37:06;;;;;;;;;;;;;;;16.03;47.04;99945.75;4435409;32;34218;-90
2023/05/11 04:39:36;;;;;;;;;;;;;;;15.95;46.39;99945.41;4421717;32;33150;-90
2023/05/11 04:42:05;;;;;;;;;;;;;;;16.04;45.72;99949.25;4422659;32;33071;-90
2023/05/11 04:47:09;;;;;;;;;;;;;;;15.81;45.74;99959.59;4446319;32;33865;-90
2023/05/11 04:49:39;;;;;;;;;;;;;;;15.93;45.44;99954.44;4447200;32;33517;-90
2023/05/11 04:52:13;;;;;;;;;;;;;;;16.02;45.33;99962.69;4439537;32;33544;-89
2023/05/11 04:54:43;;;;;;;;;;;;;;;16.25;44.95;99960.38;4433279;32;32730;-90
2023/05/11 04:57:15;;;;;;;;;;;;;;;16.10;45.21;99962.22;4432710;32;33953;-89
2023/05/11 04:59:51;;;;;;;;;;;;;;;16.28;44.90;99955.69;4439055;32;32950;-89
2023/05/11 05:02:20;;;;;;;;;;;;;;;16.24;44.96;99969.31;4420368;32;32777;-90
2023/05/11 05:04:50;;;;;;;;;;;;;;;16.02;45.58;99968.03;4434037;32;32648;-90
2023/05/11 05:07:20;;;;;;;;;;;;;;;16.39;45.40;99963.00;4421868;32;32829;-91
2023/05/11 05:09:51;;;;;;;;;;;;;;;16.44;44.79;99960.88;4433176;32;34249;-90
2023/05/11 05:12:29;;;;;;;;;;;;;;;16.35;45.35;99964.16;4420880;32;34333;-90
2023/05/11 05:14:57;;;;;;;;;;;;;;;16.47;45.17;99959.81;4406872;32;32274;-90
2023/05/11 05:17:25;;;;;;;;;;;;;;;16.71;44.92;99954.66;4405299;32;33114;-90
2023/05/11 05:19:53;;;;;;;;;;;;;;;16.59;45.03;99959.88;4433684;32;33409;-90
2023/05/11 05:22:30;;;;;;;;;;;;;;;16.88;43.86;99954.44;4406412;32;32310;-90
2023/05/11 05:24:58;;;;;;;;;;;;;;;16.82;44.47;99960.19;4408980;32;31645;-90
2023/05/11 05:27:29;;;;;;;;;;;;;;;16.73;44.50;99960.81;4419303;32;33006;-90
2023/05/11 05:30:28;;;;;;;;;;;;;;;16.57;44.58;99961.78;4423162;32;34286;-90
2023/05/11 05:32:58;;;;;;;;;;;;;;;16.20;44.87;99978.47;4402779;32;32617;-90
2023/05/11 05:35:32;;;;;;;;;;;;;;;16.36;44.56;99963.19;4427497;32;32841;-88
2023/05/11 05:38:07;;;;;;;;;;;;;;;16.46;44.73;99974.09;4434715;32;33798;-88
2023/05/11 05:40:36;;;;;;;;;;;;;;;16.72;43.76;99969.78;4443814;32;34011;-88
2023/05/11 05:43:05;;;;;;;;;;;;;;;17.12;40.89;99968.78;4400550;32;33198;-88
2023/05/11 05:45:36;;;;;;;;;;;;;;;17.28;41.02;99978.41;4431536;32;34209;-88
2023/05/11 05:48:08;;;;;;;;;;;;;;;17.35;40.75;99977.87;4408643;32;32757;-88
2023/05/11 05:50:39;;;;;;;;;;;;;;;17.26;40.30;99967.84;4430462;32;33894;-88
2023/05/11 05:53:12;;;;;;;;;;;;;;;17.00;41.49;99976.78;4431932;32;35006;-88
2023/05/11 05:55:40;;;;;;;;;;;;;;;17.32;40.75;99975.41;4414941;32;33115;-88
2023/05/11 05:58:11;;;;;;;;;;;;;;;17.40;39.93;99985.56;4423913;32;32946;-88
2023/05/11 06:00:41;;;;;;;;;;;;;;;17.60;38.75;99973.50;4416327;32;32843;-88
2023/05/11 06:03:09;;;;;;;;;;;;;;;17.25;39.48;99978.63;4428018;32;34010;-88
2023/05/11 06:05:42;;;;;;;;;;;;;;;17.52;39.58;99976.72;4429339;32;32416;-91
2023/05/11 06:08:38;;;;;;;;;;;;;;;17.27;39.57;99976.69;4358702;32;33889;-90
2023/05/11 06:11:08;;;;;;;;;;;;;;;17.34;40.43;99978.00;4383305;32;32828;-90
2023/05/11 06:13:38;;;;;;;;;;;;;;;17.50;39.83;99978.63;4383758;32;33448;-89
2023/05/11 06:16:05;;;;;;;;;;;;;;;17.51;39.65;99980.34;4396688;32;32994;-89
2023/05/11 06:18:35;;;;;;;;;;;;;;;17.80;39.80;99964.13;4381737;32;32965;-90
2023/05/11 06:21:04;;;;;;;;;;;;;;;18.25;38.62;99969.81;4369865;32;33362;-89
2023/05/11 06:23:36;;;;;;;;;;;;;;;17.86;39.76;99974.38;4371208;32;32621;-90
2023/05/11 06:26:06;;;;;;;;;;;;;;;17.83;40.13;99974.59;4384892;32;32220;-91
2023/05/11 06:28:34;;;;;;;;;;;;;;;18.08;39.04;99966.50;4395874;32;32963;-88
2023/05/11 06:31:10;;;;;;;;;;;;;;;17.34;40.86;99978.00;4381906;32;33223;-90
2023/05/11 06:33:43;;;;;;;;;;;;;;;17.32;41.45;99982.56;4382698;32;32734;-90
2023/05/11 06:36:17;;;;;;;;;;;;;;;17.92;40.27;99979.28;4380744;32;32349;-90
2023/05/11 06:38:45;;;;;;;;;;;;;;;17.86;40.49;99974.38;4384255;32;33260;-90
2023/05/11 06:41:16;;;;;;;;;;;;;;;18.28;39.40;99970.44;4384751;32;31937;-90
2023/05/11 06:44:07;;;;;;;;;;;;;;;18.49;39.25;99962.66;4396583;32;34345;-86
2023/05/11 06:46:39;;;;;;;;;;;;;;;18.22;39.51;99970.00;4371138;32;32837;-86
2023/05/11 06:49:08;;;;;;;;;;;;;;;18.44;39.74;99967.50;4381666;32;33543;-86
2023/05/11 06:51:36;;;;;;;;;;;;;;;18.69;38.13;99955.84;4400243;32;32920;-86
2023/05/11 06:54:04;;;;;;;;;;;;;;;18.54;38.71;99965.84;4396028;32;33587;-86
2023/05/11 06:56:34;;;;;;;;;;;;;;;18.42;39.20;99956.06;4382034;32;33635;-86
2023/05/11 06:59:13;;;;;;;;;;;;;;;18.68;38.59;99959.47;4378864;32;31943;-86
2023/05/11 07:01:45;;;;;;;;;;;;;;;18.77;39.20;99957.97;4377503;32;32709;-92
2023/05/11 07:04:29;;;;;;;;;;;;;;;19.04;39.07;99963.06;4379632;32;34149;-87
2023/05/11 07:06:57;;;;;;;;;;;;;;;18.81;38.87;99951.41;4384091;32;32664;-87
2023/05/11 07:09:30;;;;;;;;;;;;;;;19.21;38.03;99954.56;4374922;32;34310;-87
2023/05/11 07:11:58;;;;;;;;;;;;;;;19.28;38.45;99957.66;4386180;32;32727;-86
2023/05/11 07:14:25;;;;;;;;;;;;;;;19.21;39.06;99959.06;4362595;32;32798;-86
2023/05/11 07:16:55;;;;;;;;;;;;;;;19.44;37.97;99948.28;4387764;32;32633;-86
2023/05/11 07:19:24;;;;;;;;;;;;;;;19.83;37.48;99950.66;4378215;32;34794;-86
2023/05/11 07:21:53;;;;;;;;;;;;;;;20.13;36.99;99953.56;4372414;32;33402;-86
2023/05/11 07:24:24;;;;;;;;;;;;;;;20.16;36.02;99947.94;4362586;32;32608;-87
2023/05/11 07:26:56;;;;;;;;;;;;;;;19.95;36.01;99947.00;4374322;32;33663;-86
2023/05/11 07:29:31;;;;;;;;;;;;;;;20.03;35.43;99941.84;4388558;32;32690;-87
2023/05/11 07:32:00;;;;;;;;;;;;;;;19.86;35.43;99945.91;4384594;32;33031;-86
2023/05/11 07:34:28;;;;;;;;;;;;;;;20.05;36.23;99947.97;4384381;32;35012;-86
2023/05/11 07:36:56;;;;;;;;;;;;;;;19.71;35.60;99941.78;4373640;32;32599;-87
2023/05/11 07:39:24;;;;;;;;;;;;;;;19.87;35.20;99949.44;4385335;32;34095;-87
2023/05/11 07:41:53;;;;;;;;;;;;;;;19.87;35.55;99947.59;4358748;32;34216;-90
2023/05/11 07:44:20;;;;;;;;;;;;;;;20.13;35.67;99942.84;4386836;32;33698;-89
2023/05/11 07:46:50;;;;;;;;;;;;;;;20.00;35.90;99950.16;4375596;32;31724;-90
2023/05/11 07:49:18;;;;;;;;;;;;;;;19.77;35.02;99929.72;4397268;32;34195;-89
2023/05/11 07:52:12;;;;;;;;;;;;;;;19.95;35.54;99933.59;4391163;32;35103;-88
2023/05/11 07:54:41;;;;;;;;;;;;;;;20.26;35.25;99931.09;4359278;32;32977;-89
2023/05/11 07:57:12;;;;;;;;;;;;;;;20.59;34.37;99933.69;4360965;32;32658;-89
2023/05/11 07:59:45;;;;;;;;;;;;;;;20.21;34.73;99934.16;4372168;32;33290;-86
2023/05/11 08:02:17;;;;;;;;;;;;;;;19.96;35.34;99946.00;4373163;32;34235;-86
2023/05/11 08:04:45;;;;;;;;;;;;;;;19.90;36.19;99947.37;4402036;32;34741;-89
2023/05/11 08:07:23;;;;;;;;;;;;;;;20.10;34.71;99947.59;4389051;32;34539;-86
2023/05/11 08:09:56;;;;;;;;;;;;;;;20.06;34.09;99944.28;4395078;32;34351;-86
2023/05/11 08:12:23;;;;;;;;;;;;;;;20.33;34.65;99938.53;4379158;32;32295;-87
2023/05/11 08:14:51;;;;;;;;;;;;;;;20.32;33.64;99927.91;4387475;32;33920;-87
2023/05/11 08:17:19;;;;;;;;;;;;;;;20.85;33.39;99923.47;4402994;32;34185;-88
2023/05/11 08:20:00;;;;;;;;;;;;;;;20.25;34.16;99934.75;4400472;32;35797;-87
2023/05/11 08:22:30;;;;;;;;;;;;;;;20.48;34.48;99928.38;4410228;32;35135;-87
2023/05/11 08:24:57;;;;;;;;;;;;;;;20.58;33.81;99931.16;4396387;32;34723;-87
2023/05/11 08:27:25;;;;;;;;;;;;;;;20.91;33.35;99916.75;4386367;32;33242;-89
2023/05/11 08:29:54;;;;;;;;;;;;;;;20.97;33.55;99921.56;4388581;32;33878;-87
2023/05/11 08:32:22;;;;;;;;;;;;;;;21.08;33.23;99924.22;4385583;32;33732;-86
2023/05/11 08:34:50;;;;;;;;;;;;;;;20.74;33.53;99914.63;4400395;32;33066;-88
2023/05/11 08:37:18;;;;;;;;;;;;;;;20.90;33.98;99921.25;4375682;32;34182;-87
2023/05/11 08:39:46;;;;;;;;;;;;;;;20.76;33.62;99901.94;4401841;32;32925;-87
2023/05/11 08:42:14;;;;;;;;;;;;;;;20.88;33.49;99914.31;4378150;32;33039;-87
2023/05/11 08:44:43;;;;;;;;;;;;;;;20.89;32.64;99913.34;4396167;32;33123;-88
2023/05/11 08:47:11;;;;;;;;;;;;;;;20.63;34.49;99919.06;4401989;32;33427;-87
2023/05/11 08:49:42;;;;;;;;;;;;;;;21.10;32.80;99910.66;4378045;32;33366;-87
2023/05/11 08:52:11;;;;;;;;;;;;;;;21.02;32.83;99911.28;4390943;32;33078;-87
2023/05/11 08:54:43;;;;;;;;;;;;;;;21.08;32.53;99892.00;4388016;32;34861;-88
2023/05/11 08:57:11;;;;;;;;;;;;;;;21.06;32.62;99898.47;4387379;32;32476;-87
2023/05/11 08:59:39;;;;;;;;;;;;;;;21.58;31.84;99891.28;4390094;32;32782;-90
2023/05/11 09:02:08;;;;;;;;;;;;;;;21.00;31.77;99893.63;4374964;32;33267;-87
2023/05/11 09:04:36;;;;;;;;;;;;;;;21.21;32.12;99887.25;4376324;32;34334;-89
2023/05/11 09:07:04;;;;;;;;;;;;;;;21.76;31.75;99886.13;4388068;32;32305;-87
2023/05/11 09:09:40;;;;;;;;;;;;;;;21.40;32.06;99885.69;4377904;32;34099;-88
2023/05/11 09:12:10;;;;;;;;;;;;;;;21.35;30.94;99879.87;4406033;32;32922;-88
2023/05/11 09:14:40;;;;;;;;;;;;;;;21.20;31.77;99887.37;4389351;32;33733;-88
2023/05/11 09:17:13;;;;;;;;;;;;;;;21.57;31.96;99887.75;4367997;32;33731;-89
2023/05/11 09:19:58;;;;;;;;;;;;;;;21.64;30.66;99872.78;4387162;32;33900;-90
2023/05/11 09:22:30;;;;;;;;;;;;;;;21.86;31.79;99879.78;4402827;32;33488;-87
2023/05/11 09:25:03;;;;;;;;;;;;;;;21.48;31.34;99867.06;4385787;32;33511;-88
2023/05/11 09:27:33;;;;;;;;;;;;;;;22.12;27.96;99861.31;4402139;32;33447;-87
2023/05/11 09:30:14;;;;;;;;;;;;;;;21.94;29.40;99862.97;4377377;32;32588;-88
2023/05/11 09:32:49;;;;;;;;;;;;;;;21.97;31.14;99862.69;4389151;32;33733;-89
2023/05/11 09:35:25;;;;;;;;;;;;;;;22.13;30.14;99868.44;4399114;32;34510;-88
2023/05/11 09:38:03;;;;;;;;;;;;;;;22.13;30.52;99863.03;4403228;32;33387;-87
2023/05/11 09:40:34;;;;;;;;;;;;;;;21.80;30.06;99860.69;4415651;32;34221;-88
2023/05/11 09:43:22;;;;;;;;;;;;;;;22.19;30.87;99857.09;4374477;32;32873;-88
2023/05/11 09:45:53;;;;;;;;;;;;;;;22.32;29.75;99856.00;4391671;32;34848;-88
2023/05/11 09:48:21;;;;;;;;;;;;;;;22.05;29.22;99851.25;4390759;32;33622;-89
2023/05/11 09:50:50;;;;;;;;;;;;;;;22.20;28.75;99861.47;4390646;32;33539;-89
2023/05/11 09:53:34;;;;;;;;;;;;;;;22.14;27.05;99853.97;4400917;32;35026;-88
2023/05/11 09:56:03;;;;;;;;;;;;;;;22.41;26.93;99849.78;4391606;32;33484;-89
2023/05/11 09:58:36;;;;;;;;;;;;;;;22.32;27.33;99850.63;4388440;32;33219;-89
2023/05/11 10:01:04;;;;;;;;;;;;;;;22.04;28.49;99858.47;4390816;32;33853;-87
2023/05/11 10:03:33;;;;;;;;;;;;;;;22.36;26.67;99842.13;4373859;32;34504;-89
2023/05/11 10:06:01;;;;;;;;;;;;;;;22.02;27.24;99848.81;4376887;32;32801;-90
2023/05/11 10:08:29;;;;;;;;;;;;;;;22.48;27.45;99840.97;4375938;32;32461;-88
2023/05/11 10:10:59;;;;;;;;;;;;;;;22.52;28.15;99846.91;4378201;32;33342;-88
2023/05/11 10:13:31;;;;;;;;;;;;;;;22.26;26.88;99845.78;4377324;32;33203;-89
2023/05/11 10:16:12;;;;;;;;;;;;;;;21.94;26.49;99850.38;4402929;32;35780;-90
2023/05/11 10:18:42;;;;;;;;;;;;;;;22.27;25.98;99837.59;4389199;32;32389;-89
2023/05/11 10:21:10;;;;;;;;;;;;;;;22.39;25.75;99824.81;4390145;32;32661;-89
2023/05/11 10:23:38;;;;;;;;;;;;;;;23.00;26.18;99819.09;4386300;32;33335;-89
2023/05/11 10:26:07;;;;;;;;;;;;;;;22.93;25.61;99826.94;4370047;32;32967;-89
2023/05/11 10:28:34;;;;;;;;;;;;;;;22.73;26.35;99822.53;4376403;32;31762;-89
2023/05/11 10:31:03;;;;;;;;;;;;;;;22.36;27.23;99831.34;4402386;32;34869;-88
2023/05/11 10:33:39;;;;;;;;;;;;;;;22.56;26.89;99826.81;4380539;32;34017;-89
2023/05/11 10:36:08;;;;;;;;;;;;;;;22.17;26.97;99818.75;4390444;32;33901;-89
2023/05/11 10:38:40;;;;;;;;;;;;;;;22.38;27.41;99823.13;4386955;32;31875;-88
2023/05/11 10:41:14;;;;;;;;;;;;;;;22.67;26.91;99823.94;4374804;32;32352;-89
2023/05/11 10:43:52;;;;;;;;;;;;;;;22.89;27.46;99816.59;4401502;32;32937;-92
2023/05/11 10:46:21;;;;;;;;;;;;;;;22.56;27.63;99826.81;4385981;32;34060;-89
2023/05/11 10:49:04;;;;;;;;;;;;;;;22.49;28.59;99813.06;4402062;32;33031;-89
2023/05/11 10:51:42;;;;;;;;;;;;;;;22.65;29.23;99825.94;4402721;32;33852;-89
2023/05/11 10:54:11;;;;;;;;;;;;;;;23.03;26.48;99807.22;4371047;32;34084;-89
2023/05/11 10:56:56;;;;;;;;;;;;;;;23.29;27.63;99807.38;4415398;32;33676;-91
2023/05/11 10:59:34;;;;;;;;;;;;;;;23.37;26.11;99826.34;4405161;32;33529;-89
2023/05/11 11:02:03;;;;;;;;;;;;;;;22.97;27.30;99816.69;4406785;32;33346;-88
2023/05/11 11:04:43;;;;;;;;;;;;;;;22.49;27.81;99814.91;4389056;32;35092;-89
2023/05/11 11:07:16;;;;;;;;;;;;;;;22.46;28.18;99823.28;4402786;32;32883;-88
2023/05/11 11:09:58;;;;;;;;;;;;;;;22.51;27.24;99818.31;4391235;32;32956;-89
2023/05/11 11:12:26;;;;;;;;;;;;;;;22.28;28.71;99811.53;4377278;32;33213;-89
2023/05/11 11:15:02;;;;;;;;;;;;;;;22.64;28.16;99813.47;4387071;32;34424;-90
2023/05/11 11:17:33;;;;;;;;;;;;;;;22.53;27.41;99794.78;4375942;32;34030;-89
2023/05/11 11:20:07;;;;;;;;;;;;;;;22.42;26.83;99803.03;4389030;32;31812;-89
2023/05/11 11:22:37;;;;;;;;;;;;;;;22.42;26.71;99786.88;4385564;32;33345;-90
2023/05/11 11:25:11;;;;;;;;;;;;;;;22.26;27.18;99803.59;4399702;32;33710;-89
2023/05/11 11:27:48;;;;;;;;;;;;;;;21.99;26.73;99796.19;4389551;32;33940;-90
2023/05/11 11:30:17;;;;;;;;;;;;;;;22.29;27.05;99797.09;4391719;32;31773;-90
2023/05/11 11:32:46;;;;;;;;;;;;;;;21.99;28.06;99790.81;4387740;32;33378;-90
2023/05/11 11:35:37;;;;;;;;;;;;;;;22.12;27.12;99791.41;4378163;32;33902;-88
2023/05/11 11:38:14;;;;;;;;;;;;;;;22.19;27.33;99791.72;4402622;32;33420;-89
2023/05/11 11:40:53;;;;;;;;;;;;;;;21.93;28.00;99794.94;4388831;32;34041;-90
2023/05/11 11:43:23;;;;;;;;;;;;;;;21.84;27.25;99794.87;4408703;32;33524;-88
2023/05/11 11:45:52;;;;;;;;;;;;;;;22.08;27.30;99789.13;4375207;32;33443;-89
2023/05/11 11:48:34;;;;;;;;;;;;;;;22.52;26.50;99787.72;4386506;32;33803;-89
2023/05/11 11:51:09;;;;;;;;;;;;;;;22.72;27.19;99785.84;4388352;32;32735;-90
2023/05/11 11:53:57;;;;;;;;;;;;;;;22.53;27.07;99786.72;4376391;32;33106;-90
2023/05/11 11:56:34;;;;;;;;;;;;;;;22.79;26.07;99783.41;4392210;32;34325;-89
2023/05/11 11:59:04;;;;;;;;;;;;;;;22.41;27.45;99790.59;4413324;32;33689;-89
2023/05/11 12:01:39;;;;;;;;;;;;;;;23.00;26.30;99784.09;4390270;32;32457;-90
2023/05/11 12:04:17;;;;;;;;;;;;;;;23.11;26.19;99781.22;4376543;32;32869;-90
2023/05/11 12:06:46;;;;;;;;;;;;;;;22.94;26.56;99787.37;4379678;32;32633;-89
2023/05/11 12:09:18;;;;;;;;;;;;;;;22.40;27.26;99789.69;4399629;32;35016;-89
2023/05/11 12:11:47;;;;;;;;;;;;;;;22.79;26.18;99778.03;4398169;32;31942;-90
2023/05/11 12:14:20;;;;;;;;;;;;;;;22.99;26.04;99764.41;4374718;32;35535;-90
2023/05/11 12:17:00;;;;;;;;;;;;;;;22.69;27.43;99762.78;4378618;32;33314;-90
2023/05/11 12:19:29;;;;;;;;;;;;;;;22.44;26.25;99764.22;4374460;32;32384;-89
2023/05/11 12:21:57;;;;;;;;;;;;;;;22.54;25.83;99761.50;4377886;32;32369;-89
2023/05/11 12:24:26;;;;;;;;;;;;;;;22.84;26.82;99763.16;4377240;32;33037;-90
2023/05/11 12:27:05;;;;;;;;;;;;;;;22.69;26.70;99754.69;4387110;32;34400;-90
2023/05/11 12:29:33;;;;;;;;;;;;;;;22.95;26.02;99757.59;4388685;32;34220;-90
2023/05/11 12:32:02;;;;;;;;;;;;;;;23.44;25.83;99746.59;4398770;32;33214;-90
2023/05/11 12:34:33;;;;;;;;;;;;;;;23.38;25.04;99752.59;4397492;32;33892;-89
2023/05/11 12:37:07;;;;;;;;;;;;;;;23.59;24.80;99745.09;4387116;32;33856;-90
2023/05/11 12:39:38;;;;;;;;;;;;;;;23.41;24.11;99736.16;4375201;32;34345;-89
2023/05/11 12:42:08;;;;;;;;;;;;;;;23.68;24.84;99741.50;4377899;32;31396;-89
2023/05/11 12:44:36;;;;;;;;;;;;;;;23.48;24.35;99742.63;4375916;32;32462;-89
2023/05/11 12:47:04;;;;;;;;;;;;;;;23.35;24.16;99734.87;4387236;32;32725;-90
2023/05/11 12:49:32;;;;;;;;;;;;;;;23.91;24.26;99716.81;4411323;32;34913;-90
2023/05/11 12:52:06;;;;;;;;;;;;;;;23.70;23.33;99723.34;4415189;32;32298;-90
2023/05/11 12:54:38;;;;;;;;;;;;;;;23.76;24.52;99732.66;4399343;32;34176;-89
2023/05/11 12:57:07;;;;;;;;;;;;;;;23.19;24.17;99727.47;4374752;32;32457;-89
2023/05/11 12:59:36;;;;;;;;;;;;;;;22.82;25.35;99729.28;4385431;32;33145;-90
2023/05/11 13:02:13;;;;;;;;;;;;;;;23.80;24.79;99717.03;4391243;32;32568;-90
2023/05/11 13:04:48;;;;;;;;;;;;;;;23.56;25.85;99710.38;4395861;32;33778;-90
2023/05/11 13:07:27;;;;;;;;;;;;;;;23.75;25.59;99707.56;4393076;32;33385;-90
2023/05/11 13:10:03;;;;;;;;;;;;;;;23.40;26.07;99715.56;4393173;32;33890;-90
2023/05/11 13:12:39;;;;;;;;;;;;;;;23.25;26.17;99702.59;4389381;32;33348;-89
2023/05/11 13:15:14;;;;;;;;;;;;;;;23.39;25.72;99708.47;4414399;32;32630;-90